Terminal Aerodrome Forecast
Issued by NWS

Home | Current Version | Previous Version | Graphics & Text | Print | Product List | Glossary On
Versions: 1 2 3 4 5 6 7 8 9 10 11 12 13 14 15 16 17
289
FTUS43 KMPX 290520
TAFAXN
TAF
KAXN 290520Z 2906/3006 VRB03KT P6SM VCSH OVC018
      TEMPO 2906/2910 -SHRA OVC015
     FM291000 29004KT 5SM BR OVC009
     FM291400 29009KT P6SM BKN035
     FM292000 28012G17KT P6SM SCT150
     FM300200 29006KT P6SM SKC=

USA.gov is the U.S. government's official web portal to all federal, state and local government web resources and services.